Time;durP1;ratioP1;P1;durP2;ratioP2;P2;SDS_P1;SDS_P2;PMS_P1;PMS_P2;Temp;Humidity;BMP_temperature;BMP_pressure;BME280_temperature;BME280_humidity;BME280_pressure;Samples;Min_cycle;Max_cycle;Signal;HPM_P1;HPM_P2
2022/07/09 00:00:10;;;;;;;;;;;;;;;25.20;45.70;100438.84;2060300;28;19948;-46
2022/07/09 00:01:10;;;;;;;;;;;;;;;25.20;45.62;100436.94;2057153;28;20693;-46
2022/07/09 00:02:11;;;;;;;;;;;;;;;25.19;45.73;100440.75;2056686;28;20390;-46
2022/07/09 00:03:11;;;;;;;;;;;;;;;25.19;45.64;100437.97;2055252;28;19924;-44
2022/07/09 00:04:11;;;;;;;;;;;;;;;25.19;45.79;100440.75;2056655;28;20020;-46
2022/07/09 00:05:13;;;;;;;;;;;;;;;25.19;45.66;100440.75;2052146;28;20321;-45
2022/07/09 00:06:13;;;;;;;;;;;;;;;25.19;45.86;100435.22;2053204;28;19910;-46
2022/07/09 00:07:14;;;;;;;;;;;;;;;25.19;45.70;100435.22;2056938;28;20343;-44
2022/07/09 00:08:14;;;;;;;;;;;;;;;25.18;45.94;100430.72;2053860;28;19930;-47
2022/07/09 00:09:14;;;;;;;;;;;;;;;25.17;45.92;100437.31;2057181;28;19995;-45
2022/07/09 00:10:14;;;;;;;;;;;;;;;25.20;45.83;100441.59;2060662;28;19920;-48
2022/07/09 00:11:15;;;;;;;;;;;;;;;25.19;45.74;100440.75;2060900;28;19932;-45
2022/07/09 00:12:15;;;;;;;;;;;;;;;25.18;45.92;100435.41;2060828;28;19967;-45
2022/07/09 00:13:15;;;;;;;;;;;;;;;25.19;45.72;100432.47;2058348;28;19921;-45
2022/07/09 00:14:16;;;;;;;;;;;;;;;25.20;45.94;100436.94;2061399;28;19924;-44
2022/07/09 00:15:16;;;;;;;;;;;;;;;25.20;45.94;100430.56;2059403;28;19957;-45
2022/07/09 00:16:16;;;;;;;;;;;;;;;25.19;45.79;100435.22;2058833;28;19924;-44
2022/07/09 00:17:16;;;;;;;;;;;;;;;25.19;46.00;100435.22;2058654;28;19917;-45
2022/07/09 00:18:17;;;;;;;;;;;;;;;25.20;45.91;100431.41;2060055;28;19944;-44
2022/07/09 00:19:17;;;;;;;;;;;;;;;25.19;46.02;100424.19;2060781;28;20229;-47
2022/07/09 00:20:17;;;;;;;;;;;;;;;25.18;46.05;100422.44;2056173;28;19914;-44
2022/07/09 00:21:18;;;;;;;;;;;;;;;25.19;45.89;100424.19;2059683;28;20722;-45
2022/07/09 00:22:18;;;;;;;;;;;;;;;25.18;45.99;100422.44;2057669;28;19968;-52
2022/07/09 00:23:18;;;;;;;;;;;;;;;25.18;46.00;100421.59;2055738;28;20416;-49
2022/07/09 00:24:19;;;;;;;;;;;;;;;25.19;46.04;100429.72;2060299;28;19917;-47
2022/07/09 00:25:19;;;;;;;;;;;;;;;25.19;46.09;100429.72;2057813;28;19988;-47
2022/07/09 00:26:19;;;;;;;;;;;;;;;25.18;45.90;100427.97;2060607;28;20576;-46
2022/07/09 00:27:19;;;;;;;;;;;;;;;25.18;45.94;100427.97;2060638;28;19940;-44
2022/07/09 00:28:20;;;;;;;;;;;;;;;25.19;46.11;100429.72;2058818;28;19925;-47
2022/07/09 00:29:20;;;;;;;;;;;;;;;25.18;45.94;100425.22;2061870;28;19918;-48
2022/07/09 00:30:20;;;;;;;;;;;;;;;25.18;46.22;100427.13;2057007;28;19917;-47
2022/07/09 00:31:20;;;;;;;;;;;;;;;25.19;46.02;100424.19;2060251;28;20498;-45
2022/07/09 00:32:21;;;;;;;;;;;;;;;25.19;45.92;100423.34;2053284;28;19917;-46
2022/07/09 00:33:21;;;;;;;;;;;;;;;25.17;46.00;100420.75;2051773;28;20016;-45
2022/07/09 00:34:21;;;;;;;;;;;;;;;25.19;45.95;100424.19;2057753;28;20816;-45
2022/07/09 00:35:22;;;;;;;;;;;;;;;25.19;46.10;100424.19;2060450;28;19925;-46
2022/07/09 00:36:22;;;;;;;;;;;;;;;25.18;46.16;100416.94;2060684;28;20416;-45
2022/07/09 00:37:23;;;;;;;;;;;;;;;25.18;46.21;100422.44;2058875;28;19923;-48
2022/07/09 00:38:23;;;;;;;;;;;;;;;25.18;46.11;100416.94;2059723;28;20033;-44
2022/07/09 00:39:23;;;;;;;;;;;;;;;25.18;46.29;100411.41;2056618;28;20097;-44
2022/07/09 00:40:23;;;;;;;;;;;;;;;25.19;46.29;100418.66;2054452;28;19925;-44
2022/07/09 00:41:24;;;;;;;;;;;;;;;25.19;46.28;100424.19;2059153;28;19921;-44
2022/07/09 00:42:24;;;;;;;;;;;;;;;25.19;46.21;100421.44;2060490;28;20202;-44
2022/07/09 00:43:25;;;;;;;;;;;;;;;25.18;46.11;100411.41;2060290;28;19924;-44
2022/07/09 00:44:25;;;;;;;;;;;;;;;25.17;46.03;100415.22;2059573;28;19913;-45
2022/07/09 00:45:26;;;;;;;;;;;;;;;25.17;46.33;100412.47;2056510;28;19925;-45
2022/07/09 00:46:26;;;;;;;;;;;;;;;25.18;45.94;100416.09;2049899;28;19965;-45
2022/07/09 00:47:27;;;;;;;;;;;;;;;25.19;46.16;100424.19;2051069;28;19917;-43
2022/07/09 00:48:27;;;;;;;;;;;;;;;25.17;46.34;100415.22;2057932;28;19937;-44
2022/07/09 00:49:28;;;;;;;;;;;;;;;25.16;46.11;100413.50;2054853;28;20004;-44
2022/07/09 00:50:29;;;;;;;;;;;;;;;25.17;46.37;100415.22;2054541;28;19925;-44
2022/07/09 00:51:30;;;;;;;;;;;;;;;25.17;46.34;100409.72;2061181;28;19921;-45
2022/07/09 00:52:31;;;;;;;;;;;;;;;25.17;46.31;100409.72;2059041;28;19965;-44
2022/07/09 00:53:31;;;;;;;;;;;;;;;25.18;46.44;100416.09;2054443;28;20032;-45
2022/07/09 00:54:32;;;;;;;;;;;;;;;25.16;46.18;100407.09;2050710;28;20004;-45
2022/07/09 00:55:32;;;;;;;;;;;;;;;25.17;46.40;100409.72;2059734;28;20407;-44
2022/07/09 00:56:33;;;;;;;;;;;;;;;25.16;46.19;100405.22;2060613;28;20168;-44
2022/07/09 00:57:34;;;;;;;;;;;;;;;25.16;46.25;100402.47;2058933;28;20635;-44
2022/07/09 00:58:34;;;;;;;;;;;;;;;25.16;46.39;100402.47;2059939;28;19925;-44
2022/07/09 00:59:38;;;;;;;;;;;;;;;25.16;46.35;100399.69;2058454;28;19995;-44
2022/07/09 01:00:38;;;;;;;;;;;;;;;25.17;46.43;100404.19;2058795;28;19976;-44
2022/07/09 01:01:39;;;;;;;;;;;;;;;25.17;46.25;100408.88;2061269;28;20044;-45
2022/07/09 01:02:40;;;;;;;;;;;;;;;25.17;46.23;100409.72;2057771;28;19921;-44
2022/07/09 01:03:41;;;;;;;;;;;;;;;25.17;46.25;100404.19;2061137;28;20133;-46
2022/07/09 01:04:41;;;;;;;;;;;;;;;25.16;46.33;100410.75;2059061;28;19927;-45
2022/07/09 01:05:42;;;;;;;;;;;;;;;25.17;46.42;100398.69;2050359;28;19921;-45
2022/07/09 01:06:42;;;;;;;;;;;;;;;25.18;46.29;100402.28;2054008;28;19917;-45
2022/07/09 01:07:43;;;;;;;;;;;;;;;25.17;46.21;100406.09;2053033;28;19998;-44
2022/07/09 01:08:43;;;;;;;;;;;;;;;25.17;46.49;100408.88;2060644;28;20572;-45
2022/07/09 01:09:43;;;;;;;;;;;;;;;25.17;46.26;100404.19;2058972;28;20022;-49
2022/07/09 01:10:44;;;;;;;;;;;;;;;25.17;46.48;100398.69;2061494;28;20324;-44
2022/07/09 01:11:46;;;;;;;;;;;;;;;25.17;46.49;100403.34;2058610;28;20175;-45
2022/07/09 01:12:46;;;;;;;;;;;;;;;25.17;46.52;100409.72;2060217;28;19971;-45
2022/07/09 01:13:46;;;;;;;;;;;;;;;25.16;46.32;100402.47;2060043;28;19981;-45
2022/07/09 01:14:47;;;;;;;;;;;;;;;25.16;46.38;100402.47;2058989;28;19917;-43
2022/07/09 01:15:47;;;;;;;;;;;;;;;25.16;46.55;100402.47;2060822;28;19960;-45
2022/07/09 01:16:56;;;;;;;;;;;;;;;25.16;46.51;100399.69;2058491;28;19917;-44
2022/07/09 01:17:58;;;;;;;;;;;;;;;25.16;46.41;100402.47;2053341;28;19971;-44
2022/07/09 01:18:58;;;;;;;;;;;;;;;25.17;46.28;100398.69;2044331;28;20433;-45
2022/07/09 01:19:59;;;;;;;;;;;;;;;25.16;46.34;100396.94;2059025;28;20168;-45
2022/07/09 01:21:00;;;;;;;;;;;;;;;25.15;46.51;100389.69;2060429;28;20300;-45
2022/07/09 01:22:00;;;;;;;;;;;;;;;25.15;46.50;100389.69;2051835;28;19922;-46
2022/07/09 01:23:01;;;;;;;;;;;;;;;25.15;46.57;100389.69;2056074;28;19928;-45
2022/07/09 01:24:01;;;;;;;;;;;;;;;25.16;46.56;100396.06;2057061;28;20372;-45
2022/07/09 01:25:04;;;;;;;;;;;;;;;25.14;46.58;100393.50;2061091;28;20286;-45
2022/07/09 01:26:05;;;;;;;;;;;;;;;25.16;46.41;100396.94;2058138;28;19921;-45
2022/07/09 01:27:06;;;;;;;;;;;;;;;25.16;46.58;100396.06;2053738;28;19918;-47
2022/07/09 01:28:07;;;;;;;;;;;;;;;25.16;46.50;100396.06;2060906;28;19917;-44
2022/07/09 01:29:08;;;;;;;;;;;;;;;25.16;46.58;100398.81;2058219;28;19921;-45
2022/07/09 01:30:08;;;;;;;;;;;;;;;25.15;46.55;100400.72;2061079;28;19917;-45
2022/07/09 01:31:08;;;;;;;;;;;;;;;25.15;46.40;100395.22;2058318;28;20571;-43
2022/07/09 01:32:09;;;;;;;;;;;;;;;25.15;46.54;100392.44;2061045;28;19921;-45
2022/07/09 01:33:09;;;;;;;;;;;;;;;25.15;46.36;100392.44;2052967;28;19913;-46
2022/07/09 01:34:09;;;;;;;;;;;;;;;25.15;46.39;100395.22;2057103;28;19953;-44
2022/07/09 01:35:10;;;;;;;;;;;;;;;25.15;46.70;100392.44;2056995;28;20047;-44
2022/07/09 01:36:10;;;;;;;;;;;;;;;25.14;46.51;100388.00;2060120;28;19955;-45
2022/07/09 01:37:11;;;;;;;;;;;;;;;25.16;46.57;100390.53;2058623;28;19917;-45
2022/07/09 01:38:11;;;;;;;;;;;;;;;25.15;46.44;100389.69;2053876;28;19910;-44
2022/07/09 01:39:11;;;;;;;;;;;;;;;25.16;46.51;100396.06;2059530;28;19917;-44
2022/07/09 01:40:12;;;;;;;;;;;;;;;25.15;46.49;100389.69;2058892;28;20377;-44
2022/07/09 01:41:12;;;;;;;;;;;;;;;25.15;46.70;100391.59;2060694;28;20360;-44
2022/07/09 01:42:12;;;;;;;;;;;;;;;25.15;46.53;100395.22;2052679;28;20017;-47
2022/07/09 01:43:13;;;;;;;;;;;;;;;25.14;46.59;100382.47;2053842;28;20455;-43
2022/07/09 01:44:13;;;;;;;;;;;;;;;25.15;46.64;100400.72;2060160;28;20397;-44
2022/07/09 01:45:14;;;;;;;;;;;;;;;25.16;46.53;100387.78;2060369;28;20306;-44
2022/07/09 01:46:14;;;;;;;;;;;;;;;25.15;46.57;100395.22;2054617;28;19914;-44
2022/07/09 01:47:15;;;;;;;;;;;;;;;25.15;46.69;100392.44;2057721;28;20364;-45
2022/07/09 01:48:15;;;;;;;;;;;;;;;25.15;46.54;100391.59;2062321;28;19922;-45
2022/07/09 01:49:15;;;;;;;;;;;;;;;25.14;46.73;100393.50;2060840;28;19913;-44
2022/07/09 01:50:15;;;;;;;;;;;;;;;25.14;46.69;100390.75;2060268;28;19952;-45
2022/07/09 01:51:16;;;;;;;;;;;;;;;25.13;46.72;100397.28;2059626;28;19999;-44
2022/07/09 01:52:16;;;;;;;;;;;;;;;25.14;46.57;100393.50;2059999;28;20036;-44
2022/07/09 01:53:16;;;;;;;;;;;;;;;25.14;46.58;100388.00;2057600;28;20288;-45
2022/07/09 01:54:17;;;;;;;;;;;;;;;25.14;46.49;100389.91;2061634;28;19921;-44
2022/07/09 01:55:17;;;;;;;;;;;;;;;25.14;46.50;100385.22;2061400;28;19925;-45
2022/07/09 01:56:17;;;;;;;;;;;;;;;25.14;46.73;100381.63;2058904;28;19929;-44
2022/07/09 01:57:17;;;;;;;;;;;;;;;25.13;46.71;100386.25;2059851;28;19968;-45
2022/07/09 01:58:18;;;;;;;;;;;;;;;25.14;46.71;100392.66;2063050;28;19917;-44
2022/07/09 01:59:18;;;;;;;;;;;;;;;25.13;46.73;100386.25;2056991;28;19925;-48
2022/07/09 02:00:19;;;;;;;;;;;;;;;25.13;46.62;100389.00;2062006;28;19921;-48
2022/07/09 02:01:20;;;;;;;;;;;;;;;25.14;46.95;100382.47;2054790;28;19962;-45
2022/07/09 02:02:20;;;;;;;;;;;;;;;25.13;46.79;100385.41;2058256;28;19925;-44
2022/07/09 02:03:22;;;;;;;;;;;;;;;25.13;46.72;100382.63;2059048;28;19924;-45
2022/07/09 02:04:23;;;;;;;;;;;;;;;25.13;46.77;100380.72;2056221;28;19968;-45
2022/07/09 02:05:23;;;;;;;;;;;;;;;25.13;46.75;100386.25;2054670;28;19988;-47
2022/07/09 02:06:24;;;;;;;;;;;;;;;25.13;46.75;100385.41;2053164;28;19982;-44
2022/07/09 02:07:24;;;;;;;;;;;;;;;25.13;46.90;100386.25;2052696;28;19910;-44
2022/07/09 02:08:26;;;;;;;;;;;;;;;25.14;46.77;100389.91;2053413;28;20198;-44
2022/07/09 02:09:26;;;;;;;;;;;;;;;25.13;46.72;100386.25;2057346;28;19945;-45
2022/07/09 02:10:26;;;;;;;;;;;;;;;25.13;46.88;100394.53;2061522;28;19921;-45
2022/07/09 02:11:27;;;;;;;;;;;;;;;25.13;46.87;100397.28;2061527;28;19917;-44
2022/07/09 02:12:27;;;;;;;;;;;;;;;25.13;46.72;100397.28;2057622;28;19918;-45
2022/07/09 02:13:28;;;;;;;;;;;;;;;25.13;46.87;100394.53;2062501;28;19969;-45
2022/07/09 02:14:28;;;;;;;;;;;;;;;25.13;46.99;100397.28;2057017;28;19922;-44
2022/07/09 02:15:29;;;;;;;;;;;;;;;25.14;46.75;100398.16;2058433;28;20332;-44
2022/07/09 02:16:29;;;;;;;;;;;;;;;25.13;47.01;100397.28;2061198;28;19917;-44
2022/07/09 02:17:30;;;;;;;;;;;;;;;25.13;46.70;100394.53;2054921;28;19917;-44
2022/07/09 02:18:30;;;;;;;;;;;;;;;25.14;46.80;100387.13;2054025;28;19929;-43
2022/07/09 02:19:30;;;;;;;;;;;;;;;25.13;46.93;100386.25;2059770;28;19928;-45
2022/07/09 02:20:32;;;;;;;;;;;;;;;25.13;46.94;100388.16;2058922;28;20316;-44
2022/07/09 02:21:33;;;;;;;;;;;;;;;25.12;46.79;100398.34;2059676;28;20246;-44
2022/07/09 02:22:33;;;;;;;;;;;;;;;25.13;46.80;100400.03;2060625;28;20001;-45
2022/07/09 02:23:33;;;;;;;;;;;;;;;25.13;46.82;100397.28;2060916;28;20316;-44
2022/07/09 02:24:34;;;;;;;;;;;;;;;25.13;46.94;100399.19;2061870;28;19966;-44
2022/07/09 02:25:34;;;;;;;;;;;;;;;25.12;46.97;100401.09;2052198;28;19956;-44
2022/07/09 02:26:34;;;;;;;;;;;;;;;25.13;46.82;100402.81;2051781;28;19972;-44
2022/07/09 02:27:34;;;;;;;;;;;;;;;25.12;47.04;100401.09;2060721;28;19929;-45
2022/07/09 02:28:35;;;;;;;;;;;;;;;25.13;46.95;100397.28;2059720;28;19924;-45
2022/07/09 02:29:35;;;;;;;;;;;;;;;25.13;47.01;100396.44;2061521;28;19928;-45
2022/07/09 02:30:36;;;;;;;;;;;;;;;25.12;46.96;100390.06;2058937;28;19917;-44
2022/07/09 02:31:37;;;;;;;;;;;;;;;25.12;47.02;100392.81;2058883;28;20501;-44
2022/07/09 02:32:38;;;;;;;;;;;;;;;25.12;47.03;100394.72;2061161;28;19975;-45
2022/07/09 02:33:38;;;;;;;;;;;;;;;25.12;46.89;100395.59;2052007;28;20016;-44
2022/07/09 02:34:38;;;;;;;;;;;;;;;25.11;46.90;100393.88;2051821;28;19917;-44
2022/07/09 02:35:39;;;;;;;;;;;;;;;25.11;47.14;100396.63;2060969;28;19929;-44
2022/07/09 02:36:39;;;;;;;;;;;;;;;25.11;47.09;100388.38;2055423;28;19917;-44
2022/07/09 02:37:41;;;;;;;;;;;;;;;25.11;47.13;100390.25;2060740;28;19921;-45
2022/07/09 02:38:41;;;;;;;;;;;;;;;25.10;46.97;100386.63;2060079;28;19928;-45
2022/07/09 02:39:42;;;;;;;;;;;;;;;25.12;47.10;100391.97;2051420;28;20371;-44
2022/07/09 02:40:42;;;;;;;;;;;;;;;25.12;47.11;100390.06;2054231;28;19922;-44
2022/07/09 02:41:42;;;;;;;;;;;;;;;25.11;46.99;100393.88;2055307;28;19922;-45
2022/07/09 02:42:43;;;;;;;;;;;;;;;25.10;47.07;100391.28;2060122;28;20201;-44
2022/07/09 02:43:43;;;;;;;;;;;;;;;25.11;46.96;100393.00;2059557;28;19918;-44
2022/07/09 02:44:43;;;;;;;;;;;;;;;25.11;47.14;100393.88;2061045;28;19910;-44
2022/07/09 02:45:44;;;;;;;;;;;;;;;25.10;47.18;100397.66;2059375;28;19921;-43
2022/07/09 02:46:44;;;;;;;;;;;;;;;25.10;47.03;100392.16;2061433;28;20688;-44
2022/07/09 02:47:44;;;;;;;;;;;;;;;25.11;46.92;100393.88;2059145;28;19924;-45
2022/07/09 02:48:45;;;;;;;;;;;;;;;25.12;47.09;100400.25;2061267;28;19910;-44
2022/07/09 02:49:45;;;;;;;;;;;;;;;25.11;47.20;100410.44;2059405;28;19921;-44
2022/07/09 02:50:45;;;;;;;;;;;;;;;25.11;47.12;100399.41;2059208;28;20717;-44
2022/07/09 02:51:46;;;;;;;;;;;;;;;25.11;47.26;100404.91;2061283;28;19928;-44
2022/07/09 02:52:46;;;;;;;;;;;;;;;25.11;47.12;100398.50;2059108;28;20232;-45
2022/07/09 02:53:47;;;;;;;;;;;;;;;25.11;47.21;100407.66;2062828;28;19921;-45
2022/07/09 02:54:47;;;;;;;;;;;;;;;25.11;47.19;100404.91;2059272;28;19920;-44
2022/07/09 02:55:47;;;;;;;;;;;;;;;25.11;47.25;100402.16;2060905;28;19922;-45
2022/07/09 02:56:48;;;;;;;;;;;;;;;25.11;47.32;100401.25;2059587;28;19924;-45
2022/07/09 02:57:48;;;;;;;;;;;;;;;25.10;47.34;100407.84;2059551;28;19921;-44
2022/07/09 02:58:48;;;;;;;;;;;;;;;25.10;47.16;100403.19;2055872;28;19925;-45
2022/07/09 02:59:48;;;;;;;;;;;;;;;25.09;47.06;100398.72;2059619;28;19926;-46
2022/07/09 03:00:49;;;;;;;;;;;;;;;25.10;47.28;100403.19;2059607;28;19941;-45
2022/07/09 03:01:49;;;;;;;;;;;;;;;25.10;47.10;100414.22;2060856;28;19929;-46
2022/07/09 03:02:49;;;;;;;;;;;;;;;25.10;47.09;100400.41;2060807;28;19921;-46
2022/07/09 03:03:50;;;;;;;;;;;;;;;25.09;47.30;100401.47;2061185;28;20212;-47
2022/07/09 03:04:50;;;;;;;;;;;;;;;25.09;47.30;100404.22;2059574;28;19987;-46
2022/07/09 03:05:51;;;;;;;;;;;;;;;25.10;47.17;100405.09;2061327;28;19929;-45
2022/07/09 03:06:51;;;;;;;;;;;;;;;25.10;47.09;100405.09;2059026;28;20243;-44
2022/07/09 03:07:51;;;;;;;;;;;;;;;25.10;47.35;100403.19;2060301;28;19977;-44
2022/07/09 03:08:52;;;;;;;;;;;;;;;25.09;47.17;100407.00;2059395;28;20392;-44
2022/07/09 03:09:52;;;;;;;;;;;;;;;25.09;47.17;100407.00;2060511;28;19917;-43
2022/07/09 03:10:52;;;;;;;;;;;;;;;25.09;47.26;100404.22;2061042;28;19975;-45
2022/07/09 03:11:52;;;;;;;;;;;;;;;25.10;47.27;100403.19;2059107;28;19932;-45
2022/07/09 03:12:53;;;;;;;;;;;;;;;25.09;47.06;100395.94;2060545;28;20109;-43
2022/07/09 03:13:53;;;;;;;;;;;;;;;25.09;47.18;100407.00;2059196;28;19924;-44
2022/07/09 03:14:54;;;;;;;;;;;;;;;25.09;47.45;100401.47;2060459;28;20346;-43
2022/07/09 03:15:54;;;;;;;;;;;;;;;25.10;47.00;100402.31;2062237;28;19956;-44
2022/07/09 03:16:54;;;;;;;;;;;;;;;25.10;46.99;100403.19;2061656;28;20489;-44
2022/07/09 03:17:55;;;;;;;;;;;;;;;25.09;47.06;100407.00;2060379;28;19924;-44
2022/07/09 03:18:55;;;;;;;;;;;;;;;25.09;47.22;100407.00;2045098;28;19914;-45
2022/07/09 03:19:56;;;;;;;;;;;;;;;25.10;47.43;100402.31;2047659;28;19926;-44
2022/07/09 03:20:56;;;;;;;;;;;;;;;25.09;47.14;100406.13;2059184;28;19959;-44
2022/07/09 03:21:56;;;;;;;;;;;;;;;25.09;47.24;100404.22;2055569;28;20195;-44
2022/07/09 03:22:56;;;;;;;;;;;;;;;25.10;47.28;100414.22;2059650;28;20545;-44
2022/07/09 03:23:57;;;;;;;;;;;;;;;25.09;47.21;100412.50;2061742;28;20103;-48
2022/07/09 03:24:57;;;;;;;;;;;;;;;25.09;47.27;100414.41;2060537;28;19921;-43
2022/07/09 03:25:57;;;;;;;;;;;;;;;25.09;47.13;100412.50;2061437;28;20279;-46
2022/07/09 03:26:57;;;;;;;;;;;;;;;25.08;47.38;100416.28;2059089;28;19929;-46
2022/07/09 03:27:58;;;;;;;;;;;;;;;25.09;47.28;100415.25;2059421;28;20201;-45
2022/07/09 03:28:58;;;;;;;;;;;;;;;25.08;47.31;100427.31;2062016;28;19948;-45
2022/07/09 03:29:59;;;;;;;;;;;;;;;25.09;47.14;100423.53;2059319;28;20365;-45
2022/07/09 03:30:59;;;;;;;;;;;;;;;25.07;47.38;100417.34;2061276;28;20797;-44
2022/07/09 03:32:00;;;;;;;;;;;;;;;25.07;47.26;100414.56;2059075;28;20258;-45
2022/07/09 03:33:00;;;;;;;;;;;;;;;25.07;47.37;100414.56;2060388;28;19928;-44
2022/07/09 03:34:01;;;;;;;;;;;;;;;25.07;47.36;100414.56;2060930;28;19961;-44
2022/07/09 03:35:01;;;;;;;;;;;;;;;25.07;47.41;100414.56;2061050;28;20290;-45
2022/07/09 03:36:01;;;;;;;;;;;;;;;25.07;47.27;100417.34;2049974;28;20076;-44
2022/07/09 03:37:02;;;;;;;;;;;;;;;25.07;47.17;100413.72;2048805;28;19918;-44
2022/07/09 03:38:02;;;;;;;;;;;;;;;25.08;47.29;100415.44;2055565;28;19921;-44
2022/07/09 03:39:02;;;;;;;;;;;;;;;25.07;47.35;100419.25;2055059;28;19918;-45
2022/07/09 03:40:03;;;;;;;;;;;;;;;25.07;47.41;100420.09;2056974;28;19971;-44
2022/07/09 03:41:03;;;;;;;;;;;;;;;25.07;47.30;100414.56;2057183;28;19921;-44
2022/07/09 03:42:06;;;;;;;;;;;;;;;25.07;47.50;100419.25;2055855;28;19960;-43
2022/07/09 03:43:06;;;;;;;;;;;;;;;25.06;47.39;100418.34;2061367;28;19939;-45
2022/07/09 03:44:07;;;;;;;;;;;;;;;25.07;47.43;100419.25;2058298;28;19925;-44
2022/07/09 03:45:07;;;;;;;;;;;;;;;25.07;47.49;100419.25;2060988;28;19914;-44
2022/07/09 03:46:08;;;;;;;;;;;;;;;25.07;47.36;100420.09;2059266;28;19925;-44
2022/07/09 03:47:08;;;;;;;;;;;;;;;25.07;47.35;100424.75;2059338;28;19914;-44
2022/07/09 03:48:08;;;;;;;;;;;;;;;25.08;47.48;100426.47;2062688;28;20292;-45
2022/07/09 03:49:10;;;;;;;;;;;;;;;25.07;47.46;100424.75;2052401;28;19969;-45
2022/07/09 03:50:12;;;;;;;;;;;;;;;25.07;47.54;100427.53;2050170;28;19924;-44
2022/07/09 03:51:12;;;;;;;;;;;;;;;25.06;47.49;100420.25;2059448;28;19925;-45
2022/07/09 03:52:12;;;;;;;;;;;;;;;25.07;47.27;100420.09;2059351;28;20141;-45
2022/07/09 03:53:13;;;;;;;;;;;;;;;25.06;47.35;100417.50;2060788;28;19917;-43
2022/07/09 03:54:13;;;;;;;;;;;;;;;25.06;47.52;100418.34;2057063;28;20290;-44
2022/07/09 03:55:13;;;;;;;;;;;;;;;25.06;47.50;100415.59;2057048;28;20418;-44
2022/07/09 03:56:14;;;;;;;;;;;;;;;25.06;47.49;100417.50;2059685;28;19910;-46
2022/07/09 03:57:14;;;;;;;;;;;;;;;25.07;47.27;100413.72;2056840;28;20946;-44
2022/07/09 03:58:14;;;;;;;;;;;;;;;25.06;47.40;100412.00;2061079;28;19918;-45
2022/07/09 03:59:15;;;;;;;;;;;;;;;25.06;47.35;100415.59;2059948;28;19968;-46
2022/07/09 04:00:15;;;;;;;;;;;;;;;25.07;47.36;100410.97;2056389;28;19971;-44
2022/07/09 04:01:15;;;;;;;;;;;;;;;25.06;47.43;100407.31;2061714;28;19982;-44
2022/07/09 04:02:16;;;;;;;;;;;;;;;25.05;47.47;100405.63;2059478;28;20743;-44
2022/07/09 04:03:16;;;;;;;;;;;;;;;25.05;47.53;100408.38;2057974;28;19931;-44
2022/07/09 04:04:16;;;;;;;;;;;;;;;25.05;47.36;100402.88;2058876;28;19920;-44
2022/07/09 04:05:17;;;;;;;;;;;;;;;25.06;47.47;100403.72;2056176;28;19917;-45
2022/07/09 04:06:17;;;;;;;;;;;;;;;25.04;47.37;100398.41;2061700;28;19940;-43
2022/07/09 04:07:17;;;;;;;;;;;;;;;25.06;47.36;100401.81;2055365;28;19984;-43
2022/07/09 04:08:18;;;;;;;;;;;;;;;25.06;47.62;100400.97;2059117;28;19921;-44
2022/07/09 04:09:18;;;;;;;;;;;;;;;25.06;47.52;100409.22;2060453;28;20162;-45
2022/07/09 04:10:18;;;;;;;;;;;;;;;25.06;47.39;100406.47;2057212;28;19922;-44
2022/07/09 04:11:19;;;;;;;;;;;;;;;25.04;47.43;100403.91;2061271;28;19917;-44
2022/07/09 04:12:19;;;;;;;;;;;;;;;25.05;47.49;100405.63;2060710;28;19917;-43
2022/07/09 04:13:20;;;;;;;;;;;;;;;25.05;47.61;100407.53;2059110;28;19917;-47
2022/07/09 04:14:20;;;;;;;;;;;;;;;25.05;47.68;100411.13;2060676;28;19949;-44
2022/07/09 04:15:20;;;;;;;;;;;;;;;25.03;47.53;100414.06;2058899;28;19921;-45
2022/07/09 04:16:20;;;;;;;;;;;;;;;25.03;47.66;100408.56;2057778;28;20016;-45
2022/07/09 04:17:21;;;;;;;;;;;;;;;25.04;47.68;100409.44;2060285;28;19975;-45
2022/07/09 04:18:21;;;;;;;;;;;;;;;25.04;47.62;100403.91;2055872;28;19956;-45
2022/07/09 04:19:21;;;;;;;;;;;;;;;25.04;47.69;100409.44;2059836;28;19917;-44
2022/07/09 04:20:23;;;;;;;;;;;;;;;25.03;47.51;100413.22;2057006;28;20367;-45
2022/07/09 04:21:24;;;;;;;;;;;;;;;25.02;47.53;100411.50;2055564;28;20045;-47
2022/07/09 04:22:24;;;;;;;;;;;;;;;25.03;47.46;100415.97;2060713;28;19932;-45
2022/07/09 04:23:24;;;;;;;;;;;;;;;25.03;47.55;100415.97;2055647;28;19921;-45
2022/07/09 04:24:25;;;;;;;;;;;;;;;25.03;47.60;100418.72;2057297;28;19941;-45
2022/07/09 04:25:25;;;;;;;;;;;;;;;25.03;47.69;100421.50;2052531;28;19980;-45
2022/07/09 04:26:25;;;;;;;;;;;;;;;25.02;47.61;100423.41;2057598;28;19927;-45
2022/07/09 04:27:26;;;;;;;;;;;;;;;25.02;47.56;100414.28;2060539;28;19929;-44
2022/07/09 04:28:26;;;;;;;;;;;;;;;25.03;47.58;100418.72;2059073;28;20560;-46
2022/07/09 04:29:27;;;;;;;;;;;;;;;25.03;47.70;100425.09;2059207;28;19925;-44
2022/07/09 04:30:27;;;;;;;;;;;;;;;25.01;47.55;100418.94;2055428;28;19918;-45
2022/07/09 04:31:27;;;;;;;;;;;;;;;25.02;47.62;100415.13;2050849;28;20408;-45
2022/07/09 04:32:28;;;;;;;;;;;;;;;25.03;47.69;100418.72;2060846;28;19937;-46
2022/07/09 04:33:28;;;;;;;;;;;;;;;25.03;47.74;100418.72;2059115;28;19980;-47
2022/07/09 04:34:28;;;;;;;;;;;;;;;25.02;47.47;100417.03;2059367;28;19922;-44
2022/07/09 04:35:28;;;;;;;;;;;;;;;25.02;47.57;100423.41;2051534;28;19913;-47
2022/07/09 04:36:29;;;;;;;;;;;;;;;25.03;47.48;100427.00;2052793;28;19956;-46
2022/07/09 04:37:29;;;;;;;;;;;;;;;25.02;47.54;100415.13;2060369;28;20328;-45
2022/07/09 04:38:30;;;;;;;;;;;;;;;25.02;47.72;100417.03;2059036;28;19917;-47
2022/07/09 04:39:31;;;;;;;;;;;;;;;25.02;47.67;100417.03;2059242;28;19925;-44
2022/07/09 04:40:31;;;;;;;;;;;;;;;25.02;47.67;100411.50;2060798;28;20253;-45
2022/07/09 04:41:31;;;;;;;;;;;;;;;25.01;47.80;100421.69;2059153;28;19906;-45
2022/07/09 04:42:32;;;;;;;;;;;;;;;25.01;47.56;100415.28;2060691;28;20328;-44
2022/07/09 04:43:32;;;;;;;;;;;;;;;25.02;47.65;100417.03;2057546;28;19921;-44
2022/07/09 04:44:32;;;;;;;;;;;;;;;25.01;47.55;100418.03;2063185;28;20363;-46
2022/07/09 04:45:34;;;;;;;;;;;;;;;25.01;47.52;100424.44;2059526;28;19929;-47
2022/07/09 04:46:34;;;;;;;;;;;;;;;25.01;47.70;100420.81;2061477;28;19919;-47
2022/07/09 04:47:34;;;;;;;;;;;;;;;25.01;47.90;100421.69;2058339;28;19924;-45
2022/07/09 04:48:35;;;;;;;;;;;;;;;25.01;47.60;100420.81;2059566;28;19920;-45
2022/07/09 04:49:35;;;;;;;;;;;;;;;25.01;47.56;100426.31;2060952;28;20018;-44
2022/07/09 04:50:35;;;;;;;;;;;;;;;25.01;47.77;100429.09;2057902;28;19913;-45
2022/07/09 04:51:36;;;;;;;;;;;;;;;25.02;47.85;100425.31;2060630;28;20374;-47
2022/07/09 04:52:36;;;;;;;;;;;;;;;25.01;47.69;100431.84;2059111;28;19921;-45
2022/07/09 04:53:37;;;;;;;;;;;;;;;25.01;47.79;100427.22;2057593;28;19921;-44
2022/07/09 04:54:37;;;;;;;;;;;;;;;25.01;47.78;100426.31;2061447;28;19944;-45
2022/07/09 04:55:37;;;;;;;;;;;;;;;25.00;47.79;100430.13;2060323;28;19941;-45
2022/07/09 04:56:38;;;;;;;;;;;;;;;25.01;47.60;100429.09;2058757;28;19913;-45
2022/07/09 04:57:38;;;;;;;;;;;;;;;25.01;47.67;100426.31;2060303;28;19971;-44
2022/07/09 04:58:51;;;;;;;;;;;;;;;25.01;47.57;100432.72;2059437;28;19924;-44
2022/07/09 04:59:51;;;;;;;;;;;;;;;25.00;47.71;100425.47;2057542;28;19923;-45
2022/07/09 05:00:52;;;;;;;;;;;;;;;25.01;47.76;100437.34;2057322;28;20291;-44
2022/07/09 05:01:52;;;;;;;;;;;;;;;25.01;47.71;100437.34;2051892;28;20012;-45
2022/07/09 05:02:52;;;;;;;;;;;;;;;25.00;47.77;100441.16;2050765;28;20008;-46
2022/07/09 05:03:53;;;;;;;;;;;;;;;25.01;47.58;100442.88;2059518;28;20222;-44
2022/07/09 05:04:53;;;;;;;;;;;;;;;25.00;47.65;100427.38;2058652;28;20221;-46
2022/07/09 05:05:53;;;;;;;;;;;;;;;25.01;47.68;100442.88;2061857;28;19921;-44
2022/07/09 05:06:53;;;;;;;;;;;;;;;25.00;47.69;100441.16;2058689;28;19917;-44
2022/07/09 05:07:54;;;;;;;;;;;;;;;25.01;47.82;100437.34;2060057;28;20190;-45
2022/07/09 05:08:54;;;;;;;;;;;;;;;25.00;47.63;100435.66;2060704;28;19928;-44
2022/07/09 05:09:54;;;;;;;;;;;;;;;25.00;47.84;100436.50;2057844;28;20039;-46